createdAt,value
2018-05-10T00:02:08.877Z,35.00
2018-05-10T00:04:36.380Z,35.20
2018-05-10T00:07:03.858Z,35.30
2018-05-10T00:09:34.995Z,35.40
2018-05-10T00:12:02.471Z,35.40
2018-05-10T00:14:31.487Z,35.50
2018-05-10T00:16:59.758Z,35.30
2018-05-10T00:19:28.045Z,35.40
2018-05-10T00:21:56.296Z,35.90
2018-05-10T00:24:24.729Z,35.70
2018-05-10T00:26:52.127Z,35.70
2018-05-10T00:29:19.588Z,35.80
2018-05-10T00:31:47.090Z,35.90
2018-05-10T00:34:15.349Z,35.90
2018-05-10T00:36:43.699Z,35.90
2018-05-10T00:39:11.181Z,35.80
2018-05-10T00:41:38.720Z,36.00
2018-05-10T00:44:07.085Z,36.20
2018-05-10T00:46:34.576Z,36.10
2018-05-10T00:49:02.061Z,36.20
2018-05-10T00:51:30.301Z,36.30
2018-05-10T00:53:57.801Z,36.30
2018-05-10T00:56:25.315Z,36.30
2018-05-10T00:58:52.768Z,36.30
2018-05-10T01:01:20.230Z,36.30
2018-05-10T01:03:47.684Z,36.30
2018-05-10T01:06:15.157Z,36.40
2018-05-10T01:08:42.612Z,36.30
2018-05-10T01:11:10.865Z,36.30
2018-05-10T01:13:39.075Z,36.40
2018-05-10T01:16:07.315Z,36.40
2018-05-10T01:18:34.785Z,36.40
2018-05-10T01:21:02.256Z,36.30
2018-05-10T01:23:30.493Z,36.50
2018-05-10T01:25:57.964Z,36.40
2018-05-10T01:28:25.424Z,36.60
2018-05-10T01:30:52.888Z,36.60
2018-05-10T01:33:20.369Z,36.70
2018-05-10T01:35:59.605Z,36.70
2018-05-10T01:38:27.833Z,36.60
2018-05-10T01:40:55.290Z,36.60
2018-05-10T01:43:22.765Z,36.70
2018-05-10T01:45:50.220Z,36.60
2018-05-10T01:48:17.684Z,36.70
2018-05-10T01:50:45.145Z,36.80
2018-05-10T01:53:12.626Z,36.80
2018-05-10T01:55:40.081Z,36.80
2018-05-10T01:58:07.540Z,36.80
2018-05-10T02:00:35.015Z,36.70
2018-05-10T02:03:02.474Z,36.70
2018-05-10T02:05:29.933Z,36.80
2018-05-10T02:07:57.389Z,36.90
2018-05-10T02:10:24.845Z,36.90
2018-05-10T02:12:53.076Z,36.90
2018-05-10T02:15:21.301Z,37.00
2018-05-10T02:17:49.532Z,37.00
2018-05-10T02:20:17.011Z,37.00
2018-05-10T02:22:44.473Z,37.00
2018-05-10T02:25:11.921Z,37.00
2018-05-10T02:27:39.384Z,37.10
2018-05-10T02:30:06.846Z,37.20
2018-05-10T02:32:34.296Z,37.10
2018-05-10T02:35:02.541Z,37.30
2018-05-10T02:37:30.005Z,37.30
2018-05-10T02:39:57.489Z,37.30
2018-05-10T02:42:24.944Z,37.20
2018-05-10T02:44:52.442Z,37.20
2018-05-10T02:47:20.655Z,37.30
2018-05-10T02:49:48.137Z,37.20
2018-05-10T02:52:15.591Z,37.30
2018-05-10T02:54:43.052Z,37.30
2018-05-10T02:57:10.508Z,37.20
2018-05-10T02:59:37.965Z,37.30
2018-05-10T03:02:05.423Z,37.40
2018-05-10T03:04:33.082Z,37.30
2018-05-10T03:07:00.541Z,37.40
2018-05-10T03:09:27.990Z,37.50
2018-05-10T03:11:55.457Z,37.60
2018-05-10T03:14:22.912Z,37.60
2018-05-10T03:16:50.369Z,37.60
2018-05-10T03:19:17.812Z,37.60
2018-05-10T03:21:46.064Z,37.80
2018-05-10T03:24:13.537Z,37.70
2018-05-10T03:26:41.016Z,37.70
2018-05-10T03:29:08.460Z,37.70
2018-05-10T03:31:35.936Z,38.00
2018-05-10T03:34:03.392Z,37.80
2018-05-10T03:36:30.849Z,37.80
2018-05-10T03:38:58.309Z,37.80
2018-05-10T03:41:25.763Z,37.80
2018-05-10T03:43:53.211Z,37.70
2018-05-10T03:46:20.736Z,37.80
2018-05-10T03:48:48.928Z,37.80
2018-05-10T03:51:16.384Z,37.80
2018-05-10T03:53:43.840Z,37.90
2018-05-10T03:56:11.308Z,37.90
2018-05-10T03:58:38.764Z,37.90
2018-05-10T04:01:06.252Z,38.00
2018-05-10T04:03:46.313Z,37.50
2018-05-10T04:06:25.613Z,38.00
2018-05-10T04:09:04.953Z,38.00
2018-05-10T04:11:33.224Z,38.00
2018-05-10T04:14:00.725Z,38.00
2018-05-10T04:16:28.964Z,38.30
2018-05-10T04:18:56.432Z,38.20
2018-05-10T04:21:23.894Z,38.10
2018-05-10T04:23:51.340Z,38.10
2018-05-10T04:26:18.801Z,38.10
2018-05-10T04:28:46.248Z,38.10
2018-05-10T04:31:14.482Z,38.10
2018-05-10T04:33:42.691Z,38.10
2018-05-10T04:36:10.164Z,38.10
2018-05-10T04:38:38.395Z,38.10
2018-05-10T04:41:06.620Z,38.10
2018-05-10T04:43:34.086Z,38.10
2018-05-10T04:46:01.568Z,38.10
2018-05-10T04:48:29.783Z,38.00
2018-05-10T04:50:57.252Z,38.00
2018-05-10T04:53:24.708Z,38.00
2018-05-10T04:55:52.167Z,38.10
2018-05-10T04:58:19.625Z,38.60
2018-05-10T05:00:47.092Z,38.00
2018-05-10T05:03:14.540Z,37.90
2018-05-10T05:05:47.988Z,38.00
2018-05-10T05:08:15.451Z,38.00
2018-05-10T05:10:43.684Z,38.00
2018-05-10T05:13:11.137Z,38.00
2018-05-10T05:15:38.596Z,38.20
2018-05-10T05:18:06.052Z,38.10
2018-05-10T05:20:33.504Z,38.10
2018-05-10T05:23:00.965Z,37.90
2018-05-10T05:25:28.511Z,38.00
2018-05-10T05:27:56.672Z,37.90
2018-05-10T05:30:24.128Z,37.90
2018-05-10T05:32:51.612Z,37.80
2018-05-10T05:35:19.060Z,37.80
2018-05-10T05:37:46.524Z,37.80
2018-05-10T05:40:13.977Z,37.70
2018-05-10T05:42:41.427Z,37.60
2018-05-10T05:45:08.891Z,37.60
2018-05-10T05:47:36.344Z,37.50
2018-05-10T05:50:03.807Z,37.60
2018-05-10T05:52:31.275Z,37.50
2018-05-10T05:54:58.776Z,37.40
2018-05-10T05:57:26.212Z,37.30
2018-05-10T05:59:53.722Z,37.40
2018-05-10T06:02:21.193Z,37.30
2018-05-10T06:04:49.408Z,37.30
2018-05-10T06:07:16.884Z,37.30
2018-05-10T06:09:44.344Z,37.10
2018-05-10T06:12:11.816Z,37.10
2018-05-10T06:14:39.277Z,37.10
2018-05-10T06:17:06.735Z,37.00
2018-05-10T06:19:34.202Z,36.90
2018-05-10T06:22:01.668Z,37.10
2018-05-10T06:24:29.124Z,36.80
2018-05-10T06:26:57.364Z,36.70
2018-05-10T06:29:24.821Z,36.60
2018-05-10T06:31:52.302Z,36.40
2018-05-10T06:34:19.784Z,36.10
2018-05-10T06:36:47.256Z,36.00
2018-05-10T06:39:16.227Z,35.70
2018-05-10T06:41:43.679Z,35.60
2018-05-10T06:44:11.140Z,35.40
2018-05-10T06:46:38.617Z,35.30
2018-05-10T06:49:06.068Z,35.20
2018-05-10T06:51:33.521Z,35.10
2018-05-10T06:54:00.990Z,35.00
2018-05-10T06:56:28.452Z,34.90
2018-05-10T06:58:57.432Z,34.80
2018-05-10T07:01:24.906Z,34.80
2018-05-10T07:03:52.368Z,34.60
2018-05-10T07:06:19.815Z,34.50
2018-05-10T07:08:47.269Z,34.50
2018-05-10T07:11:14.719Z,34.30
2018-05-10T07:13:42.172Z,34.20
2018-05-10T07:16:09.620Z,34.00
2018-05-10T07:18:37.088Z,34.00
2018-05-10T07:21:04.535Z,33.80
2018-05-10T07:23:31.996Z,33.70
2018-05-10T07:25:59.458Z,33.60
2018-05-10T07:28:26.916Z,33.50
2018-05-10T07:30:54.364Z,33.50
2018-05-10T07:33:22.606Z,33.20
2018-05-10T07:35:50.822Z,33.00
2018-05-10T07:38:18.280Z,33.00
2018-05-10T07:40:45.818Z,32.80
2018-05-10T07:43:13.196Z,32.70
2018-05-10T07:45:40.662Z,32.50
2018-05-10T07:48:08.132Z,32.30
2018-05-10T07:50:35.600Z,32.20
2018-05-10T07:53:03.139Z,32.20
2018-05-10T07:55:30.555Z,32.00
2018-05-10T07:57:58.768Z,32.00
2018-05-10T08:00:26.228Z,32.00
2018-05-10T08:02:53.729Z,31.80
2018-05-10T08:05:21.208Z,38.70
2018-05-10T08:07:48.691Z,42.70
2018-05-10T08:10:16.157Z,45.20
2018-05-10T08:12:43.626Z,45.00
2018-05-10T08:15:11.077Z,45.50
2018-05-10T08:17:38.545Z,45.80
2018-05-10T08:20:06.805Z,47.20
2018-05-10T08:22:35.792Z,47.10
2018-05-10T08:25:04.789Z,47.00
2018-05-10T08:27:52.128Z,47.10
2018-05-10T08:30:19.601Z,47.90
2018-05-10T08:32:47.076Z,47.80
2018-05-10T08:35:15.313Z,47.60
2018-05-10T08:37:42.785Z,47.60
2018-05-10T08:40:10.262Z,47.20
2018-05-10T08:42:38.491Z,47.00
2018-05-10T08:45:06.048Z,47.00
2018-05-10T08:47:33.433Z,47.70
2018-05-10T08:50:00.916Z,47.40
2018-05-10T08:52:29.149Z,47.00
2018-05-10T08:54:57.399Z,47.30
2018-05-10T08:57:26.820Z,46.70
2018-05-10T08:59:54.327Z,46.30
2018-05-10T09:02:21.753Z,46.00
2018-05-10T09:04:50.010Z,46.20
2018-05-10T09:07:17.480Z,46.20
2018-05-10T09:09:44.948Z,47.40
2018-05-10T09:12:12.412Z,47.60
2018-05-10T09:14:40.656Z,46.60
2018-05-10T09:17:08.126Z,46.60
2018-05-10T09:19:35.618Z,46.00
2018-05-10T09:22:03.125Z,45.40
2018-05-10T09:24:31.418Z,45.20
2018-05-10T09:26:58.941Z,45.20
2018-05-10T09:29:26.530Z,44.90
2018-05-10T09:31:53.987Z,45.00
2018-05-10T09:34:21.448Z,44.30
2018-05-10T09:36:48.912Z,44.50
2018-05-10T09:39:17.321Z,44.90
2018-05-10T09:41:44.747Z,44.90
2018-05-10T09:44:12.243Z,44.40
2018-05-10T09:46:40.483Z,43.70
2018-05-10T09:49:08.749Z,42.30
2018-05-10T09:51:37.025Z,40.40
2018-05-10T09:54:04.507Z,40.30
2018-05-10T09:56:31.989Z,39.70
2018-05-10T09:59:00.317Z,38.20
2018-05-10T10:01:27.780Z,38.10
2018-05-10T10:03:55.244Z,37.80
2018-05-10T10:06:22.700Z,37.50
2018-05-10T10:08:51.890Z,36.60
2018-05-10T10:11:19.360Z,36.50
2018-05-10T10:13:46.829Z,36.40
2018-05-10T10:16:14.285Z,35.70
2018-05-10T10:18:41.782Z,35.80
2018-05-10T10:21:09.240Z,35.70
2018-05-10T10:23:37.661Z,35.40
2018-05-10T10:26:05.136Z,35.30
2018-05-10T10:28:32.593Z,34.90
2018-05-10T10:31:00.049Z,35.30
2018-05-10T10:33:27.576Z,36.20
2018-05-10T10:35:55.040Z,36.10
2018-05-10T10:38:22.549Z,36.40
2018-05-10T10:40:50.012Z,36.60
2018-05-10T10:43:18.233Z,37.70
2018-05-10T10:45:45.697Z,37.70
2018-05-10T10:48:13.169Z,36.80
2018-05-10T10:50:40.628Z,35.50
2018-05-10T10:53:08.120Z,34.70
2018-05-10T10:55:36.341Z,35.30
2018-05-10T10:58:03.816Z,35.30
2018-05-10T11:00:31.302Z,34.80
2018-05-10T11:02:58.783Z,34.60
2018-05-10T11:05:27.044Z,34.50
2018-05-10T11:07:55.268Z,35.00
2018-05-10T11:10:22.736Z,35.00
2018-05-10T11:12:51.844Z,35.60
2018-05-10T11:15:19.296Z,35.60
2018-05-10T11:17:47.526Z,34.20
2018-05-10T11:20:15.005Z,34.20
2018-05-10T11:22:42.501Z,35.60
2018-05-10T11:25:10.028Z,36.20
2018-05-10T11:27:37.498Z,37.20
2018-05-10T11:30:04.962Z,38.20
2018-05-10T11:32:32.420Z,38.70
2018-05-10T11:34:59.933Z,38.20
2018-05-10T11:37:27.540Z,38.00
2018-05-10T11:39:55.033Z,38.90
2018-05-10T11:42:23.261Z,39.30
2018-05-10T11:44:50.731Z,39.20
2018-05-10T11:47:18.188Z,39.40
2018-05-10T11:49:45.676Z,39.70
2018-05-10T11:52:13.141Z,39.90
2018-05-10T11:54:40.613Z,39.80
2018-05-10T11:57:08.063Z,39.70
2018-05-10T11:59:35.551Z,39.70
2018-05-10T12:02:03.122Z,40.20
2018-05-10T12:04:30.577Z,39.80
2018-05-10T12:06:58.034Z,39.60
2018-05-10T12:09:27.522Z,40.20
2018-05-10T12:11:55.063Z,37.10
2018-05-10T12:14:23.302Z,33.90
2018-05-10T12:16:50.799Z,33.80
2018-05-10T12:19:19.066Z,35.60
2018-05-10T12:21:46.497Z,35.50
2018-05-10T12:24:13.980Z,36.70
2018-05-10T12:26:42.231Z,38.30
2018-05-10T12:29:12.320Z,38.70
2018-05-10T12:31:39.794Z,38.70
2018-05-10T12:34:07.310Z,39.70
2018-05-10T12:36:34.800Z,40.60
2018-05-10T12:39:02.779Z,41.30
2018-05-10T12:41:31.051Z,42.30
2018-05-10T12:43:58.528Z,42.30
2018-05-10T12:46:25.996Z,42.50
2018-05-10T12:48:53.502Z,43.00
2018-05-10T12:51:21.079Z,43.50
2018-05-10T12:53:48.528Z,43.90
2018-05-10T12:56:16.030Z,44.40
2018-05-10T12:58:43.490Z,44.90
2018-05-10T13:01:10.954Z,44.90
2018-05-10T13:03:39.196Z,44.60
2018-05-10T13:06:06.680Z,44.60
2018-05-10T13:08:34.165Z,44.00
2018-05-10T13:11:01.624Z,43.80
2018-05-10T13:13:29.113Z,44.00
2018-05-10T13:15:56.658Z,43.60
2018-05-10T13:18:24.893Z,43.70
2018-05-10T13:20:52.365Z,43.60
2018-05-10T13:23:19.842Z,44.00
2018-05-10T13:25:47.331Z,43.60
2018-05-10T13:28:14.884Z,42.70
2018-05-10T13:30:42.342Z,42.90
2018-05-10T13:33:09.846Z,42.40
2018-05-10T13:35:37.382Z,42.10
2018-05-10T13:38:04.843Z,41.90
2018-05-10T13:40:32.384Z,41.90
2018-05-10T13:42:59.833Z,41.90
2018-05-10T13:45:27.329Z,42.20
2018-05-10T13:47:54.922Z,42.40
2018-05-10T13:50:22.467Z,42.40
2018-05-10T13:52:50.792Z,42.20
2018-05-10T13:55:18.255Z,42.20
2018-05-10T13:57:45.735Z,42.10
2018-05-10T14:00:14.723Z,41.60
2018-05-10T14:02:42.206Z,41.50
2018-05-10T14:05:10.449Z,41.30
2018-05-10T14:07:37.965Z,41.20
2018-05-10T14:10:06.209Z,41.00
2018-05-10T14:12:33.680Z,41.00
2018-05-10T14:15:01.904Z,41.00
2018-05-10T14:17:29.379Z,40.90
2018-05-10T14:19:56.880Z,41.10
2018-05-10T14:22:24.373Z,41.30
2018-05-10T14:24:51.831Z,41.50
2018-05-10T14:27:19.287Z,41.40
2018-05-10T14:29:46.743Z,41.20
2018-05-10T14:32:14.247Z,41.10
2018-05-10T14:34:42.440Z,40.30
2018-05-10T14:37:10.680Z,39.20
2018-05-10T14:39:38.172Z,39.20
2018-05-10T14:42:06.412Z,39.20
2018-05-10T14:44:33.869Z,39.10
2018-05-10T14:47:01.325Z,39.40
2018-05-10T14:49:28.784Z,39.60
2018-05-10T14:51:56.244Z,39.80
2018-05-10T14:54:23.716Z,40.20
2018-05-10T14:56:51.176Z,40.10
2018-05-10T14:59:20.149Z,40.50
2018-05-10T15:01:47.608Z,40.50
2018-05-10T15:04:15.068Z,40.50
2018-05-10T15:06:42.544Z,40.50
2018-05-10T15:09:10.005Z,40.60
2018-05-10T15:11:37.490Z,41.10
2018-05-10T15:14:05.740Z,41.60
2018-05-10T15:16:33.994Z,41.60
2018-05-10T15:19:01.461Z,41.60
2018-05-10T15:21:28.933Z,41.80
2018-05-10T15:23:56.388Z,41.70
2018-05-10T15:26:24.705Z,41.80
2018-05-10T15:28:52.152Z,41.90
2018-05-10T15:31:19.611Z,41.70
2018-05-10T15:33:47.065Z,41.50
2018-05-10T15:36:15.280Z,41.70
2018-05-10T15:38:44.661Z,41.70
2018-05-10T15:41:12.104Z,42.80
2018-05-10T15:43:39.564Z,43.20
2018-05-10T15:46:07.020Z,43.50
2018-05-10T15:48:34.478Z,43.40
2018-05-10T15:51:01.934Z,44.00
2018-05-10T15:53:29.393Z,43.90
2018-05-10T15:55:56.855Z,43.80
2018-05-10T15:58:24.318Z,43.30
2018-05-10T16:00:51.764Z,42.90
2018-05-10T16:03:19.235Z,42.50
2018-05-10T16:05:46.692Z,42.50
2018-05-10T16:08:14.150Z,42.40
2018-05-10T16:10:41.608Z,42.30
2018-05-10T16:13:09.080Z,42.00
2018-05-10T16:15:42.484Z,41.90
2018-05-10T16:18:10.025Z,41.90
2018-05-10T16:20:37.468Z,42.00
2018-05-10T16:23:04.934Z,42.20
2018-05-10T16:25:32.389Z,42.30
2018-05-10T16:27:59.868Z,42.20
2018-05-10T16:30:27.327Z,42.40
2018-05-10T16:32:54.857Z,42.40
2018-05-10T16:35:22.340Z,42.40
2018-05-10T16:37:50.929Z,42.40
2018-05-10T16:40:18.388Z,42.70
2018-05-10T16:42:45.867Z,42.60
2018-05-10T16:45:13.300Z,42.20
2018-05-10T16:47:40.773Z,42.20
2018-05-10T16:50:08.425Z,42.70
2018-05-10T16:52:36.650Z,44.90
2018-05-10T16:55:04.125Z,44.20
2018-05-10T16:57:31.606Z,44.30
2018-05-10T16:59:59.093Z,44.20
2018-05-10T17:02:26.576Z,44.40
2018-05-10T17:04:54.809Z,44.80
2018-05-10T17:07:22.307Z,44.70
2018-05-10T17:09:50.541Z,45.00
2018-05-10T17:12:18.051Z,45.10
2018-05-10T17:14:46.298Z,45.20
2018-05-10T17:17:13.777Z,45.00
2018-05-10T17:19:41.241Z,45.40
2018-05-10T17:22:09.469Z,45.50
2018-05-10T17:24:36.972Z,45.50
2018-05-10T17:27:05.198Z,45.70
2018-05-10T17:29:32.656Z,45.70
2018-05-10T17:32:01.003Z,45.60
2018-05-10T17:34:28.631Z,45.80
2018-05-10T17:36:56.086Z,45.80
2018-05-10T17:39:23.551Z,45.90
2018-05-10T17:41:51.056Z,46.00
2018-05-10T17:44:19.244Z,45.90
2018-05-10T17:46:46.791Z,45.90
2018-05-10T17:49:14.257Z,45.50
2018-05-10T17:51:41.725Z,46.30
2018-05-10T17:54:09.960Z,46.10
2018-05-10T17:56:38.372Z,46.00
2018-05-10T17:59:05.985Z,46.30
2018-05-10T18:01:33.402Z,46.20
2018-05-10T18:04:00.883Z,46.20
2018-05-10T18:06:28.352Z,46.30
2018-05-10T18:08:55.809Z,46.40
2018-05-10T18:11:23.282Z,46.50
2018-05-10T18:13:51.584Z,46.90
2018-05-10T18:16:19.005Z,46.90
2018-05-10T18:18:46.464Z,46.80
2018-05-10T18:21:13.915Z,46.50
2018-05-10T18:23:41.376Z,46.70
2018-05-10T18:26:08.843Z,46.90
2018-05-10T18:28:37.110Z,47.10
2018-05-10T18:31:04.595Z,47.10
2018-05-10T18:33:32.110Z,47.60
2018-05-10T18:35:59.561Z,47.10
2018-05-10T18:38:27.041Z,46.80
2018-05-10T18:40:55.293Z,47.40
2018-05-10T18:43:23.512Z,47.20
2018-05-10T18:45:51.750Z,47.10
2018-05-10T18:48:20.008Z,47.20
2018-05-10T18:50:47.485Z,47.10
2018-05-10T18:53:14.958Z,47.00
2018-05-10T18:55:43.940Z,46.60
2018-05-10T18:58:11.413Z,46.60
2018-05-10T19:00:38.875Z,46.90
2018-05-10T19:03:07.102Z,47.80
2018-05-10T19:05:34.595Z,47.20
2018-05-10T19:08:02.077Z,47.30
2018-05-10T19:10:30.312Z,47.40
2018-05-10T19:12:57.772Z,47.40
2018-05-10T19:15:25.400Z,47.30
2018-05-10T19:17:52.789Z,47.40
2018-05-10T19:20:20.276Z,47.00
2018-05-10T19:22:47.748Z,47.30
2018-05-10T19:25:15.981Z,47.50
2018-05-10T19:27:43.444Z,47.50
2018-05-10T19:30:10.919Z,47.40
2018-05-10T19:32:38.403Z,47.60
2018-05-10T19:35:06.630Z,47.60
2018-05-10T19:37:34.101Z,47.50
2018-05-10T19:40:01.573Z,47.50
2018-05-10T19:42:29.040Z,47.40
2018-05-10T19:44:57.308Z,47.70
2018-05-10T19:47:25.568Z,47.70
2018-05-10T19:49:53.040Z,47.60
2018-05-10T19:52:21.272Z,47.50
2018-05-10T19:54:48.741Z,47.50
2018-05-10T19:57:16.242Z,47.60
2018-05-10T19:59:44.497Z,47.60
2018-05-10T20:02:11.969Z,47.60
2018-05-10T20:04:40.215Z,47.80
2018-05-10T20:07:07.684Z,47.80
2018-05-10T20:09:35.181Z,47.80
2018-05-10T20:12:02.619Z,47.80
2018-05-10T20:14:30.078Z,47.80
2018-05-10T20:16:58.326Z,48.60
2018-05-10T20:19:25.831Z,47.90
2018-05-10T20:21:53.269Z,47.80
2018-05-10T20:24:20.754Z,47.90
2018-05-10T20:26:48.218Z,47.90
2018-05-10T20:29:15.668Z,47.90
2018-05-10T20:31:43.124Z,47.80
2018-05-10T20:34:10.585Z,47.90
2018-05-10T20:36:38.065Z,48.00
2018-05-10T20:39:05.579Z,48.00
2018-05-10T20:41:33.882Z,47.90
2018-05-10T20:44:01.302Z,47.80
2018-05-10T20:46:28.760Z,47.80
2018-05-10T20:48:56.247Z,47.80
2018-05-10T20:51:23.725Z,47.90
2018-05-10T20:53:51.209Z,48.00
2018-05-10T20:56:18.673Z,48.20
2018-05-10T20:58:46.133Z,48.10
2018-05-10T21:01:13.591Z,47.90
2018-05-10T21:03:41.051Z,48.00
2018-05-10T21:06:09.093Z,48.20
2018-05-10T21:08:36.543Z,48.80
2018-05-10T21:11:04.036Z,48.50
2018-05-10T21:13:31.493Z,48.40
2018-05-10T21:16:00.483Z,48.50
2018-05-10T21:18:27.935Z,48.50
2018-05-10T21:20:55.420Z,48.20
2018-05-10T21:23:22.880Z,48.60
2018-05-10T21:25:51.109Z,49.40
2018-05-10T21:28:20.482Z,48.80
2018-05-10T21:30:48.731Z,48.80
2018-05-10T21:33:16.195Z,48.80
2018-05-10T21:35:43.700Z,49.10
2018-05-10T21:38:11.240Z,49.00
2018-05-10T21:40:38.641Z,49.00
2018-05-10T21:43:06.117Z,48.70
2018-05-10T21:45:34.373Z,49.00
2018-05-10T21:48:01.828Z,49.10
2018-05-10T21:50:29.288Z,49.00
2018-05-10T21:52:56.745Z,48.90
2018-05-10T21:55:24.199Z,49.10
2018-05-10T21:57:51.660Z,48.80
2018-05-10T22:00:19.132Z,49.00
2018-05-10T22:02:46.580Z,48.90
2018-05-10T22:05:14.800Z,48.90
2018-05-10T22:07:42.256Z,48.90
2018-05-10T22:10:09.716Z,49.00
2018-05-10T22:12:37.168Z,49.20
2018-05-10T22:15:04.629Z,48.90
2018-05-10T22:17:32.852Z,49.40
2018-05-10T22:20:00.320Z,49.40
2018-05-10T22:22:27.889Z,49.20
2018-05-10T22:24:55.345Z,49.40
2018-05-10T22:27:22.805Z,48.60
2018-05-10T22:29:51.038Z,48.80
2018-05-10T22:32:18.492Z,48.80
2018-05-10T22:34:45.964Z,48.90
2018-05-10T22:37:13.433Z,49.30
2018-05-10T22:39:40.887Z,49.20
2018-05-10T22:42:08.354Z,49.30
2018-05-10T22:44:36.133Z,49.30
2018-05-10T22:47:03.592Z,49.30
2018-05-10T22:49:31.056Z,49.30
2018-05-10T22:51:58.519Z,49.10
2018-05-10T22:54:25.985Z,49.30
2018-05-10T22:56:53.448Z,49.20
2018-05-10T22:59:20.901Z,49.20
2018-05-10T23:01:48.374Z,49.00
2018-05-10T23:04:15.820Z,49.00
2018-05-10T23:06:43.278Z,49.10
2018-05-10T23:09:10.737Z,48.90
2018-05-10T23:11:38.195Z,49.00
2018-05-10T23:14:05.650Z,49.00
2018-05-10T23:16:33.943Z,48.90
2018-05-10T23:19:01.360Z,48.90
2018-05-10T23:21:28.821Z,49.00
2018-05-10T23:23:56.272Z,48.90
2018-05-10T23:26:23.737Z,48.80
2018-05-10T23:28:51.189Z,48.60
2018-05-10T23:31:18.648Z,48.80
2018-05-10T23:33:48.252Z,48.70
2018-05-10T23:36:15.716Z,48.70
2018-05-10T23:38:43.936Z,48.60
2018-05-10T23:41:11.411Z,48.60
2018-05-10T23:43:38.873Z,48.50
2018-05-10T23:46:06.345Z,48.40
2018-05-10T23:48:33.805Z,48.30
2018-05-10T23:51:01.268Z,48.50
2018-05-10T23:53:28.728Z,48.50
2018-05-10T23:55:56.970Z,48.20
2018-05-10T23:58:24.437Z,48.20
